Latest Weather Observations for Hobart

IDT60901

Issued at 7:41 pm EDT Monday 27 January 2020 (issued every 10 minutes, with the page automatically refreshed every 10 minutes)

About weather observations | Map of Hobart area stations | Latest observations for Hobart area | Other Formats
Station Details ID: 094029 Name: HOBART (ELLERSLIE ROAD) Lat: -42.89 Lon: 147.33 Height: 50.5 m
Data from the previous 72 hours. | See also: Recent months at Hobart
Date/Time
EDT
Temp
°C
App
Temp
°C
Dew
Point
°C
Rel
Hum
%
Delta-T
°C
Wind Press
QNH
hPa
Press
MSL
hPa
Rain since
9am
mm
Dir  Spd
km/h
Gust
km/h
Spd
kts
Gust
kts
27/07:30pm 19.7 15.9 5.7 40 6.9 WNW 15 24 8 13 1011.1 1011.0 0.0
27/07:00pm 20.2 15.9 5.1 37 7.4 WNW 17 24 9 13 1011.1 1011.0 0.0
27/06:30pm 20.7 17.1 6.6 40 7.1 W 15 24 8 13 1010.8 1010.7 0.0
27/06:00pm 20.3 16.2 6.3 40 7.0 NW 17 28 9 15 1010.8 1010.7 0.0
27/05:30pm 20.8 15.7 6.0 38 7.4 NW 22 33 12 18 1010.4 1010.3 0.0
27/05:00pm 20.8 15.2 5.2 36 7.7 NW 24 37 13 20 1010.2 1010.2 0.0
27/04:30pm 22.3 17.7 5.7 34 8.4 NW 19 33 10 18 1010.4 1010.3 0.0
27/04:00pm 21.8 16.5 4.8 33 8.4 WNW 22 39 12 21 1010.4 1010.3 0.0
27/03:30pm 21.4 16.4 4.5 33 8.3 NNW 20 43 11 23 1010.1 1010.1 0.0
27/03:00pm 20.6 14.5 5.0 36 7.7 WNW 26 46 14 25 1010.6 1010.5 0.0
27/02:30pm 20.9 16.2 6.1 38 7.4 NNW 20 35 11 19 1010.8 1010.7 0.0
27/02:00pm 20.8 15.8 6.4 39 7.3 NNW 22 35 12 19 1010.9 1010.8 0.0
27/01:30pm 19.2 13.5 6.7 44 6.3 NNW 26 35 14 19 1010.9 1010.8 0.0
27/01:00pm 17.9 12.5 6.4 47 5.7 NNW 24 39 13 21 1011.4 1011.3 0.0
27/12:30pm 17.4 11.6 6.3 48 5.5 NNW 26 39 14 21 1011.6 1011.5 0.0
27/12:00pm 16.5 11.9 6.6 52 4.9 NNW 20 32 11 17 1011.8 1011.7 0.0
27/11:30am 16.2 11.3 6.9 54 4.6 NNW 22 35 12 19 1011.7 1011.6 0.0
27/11:00am 16.0 12.1 7.0 55 4.5 N 17 20 9 11 1011.9 1011.8 0.0
27/10:30am 15.4 10.8 6.7 56 4.3 NNW 20 30 11 16 1012.0 1011.9 0.0
27/10:00am 15.2 9.0 6.2 55 4.4 NNW 28 35 15 19 1011.7 1011.6 0.0
27/09:30am 15.2 10.1 6.2 55 4.4 NNW 22 32 12 17 1012.3 1012.2 0.0
27/09:00am 15.2 10.7 6.2 55 4.4 NNW 19 30 10 16 1012.3 1012.2 0.0
27/08:30am 15.2 11.1 6.2 55 4.4 NNW 17 22 9 12 1011.8 1011.7 0.0
27/08:00am 15.1 10.0 5.9 54 4.4 NNW 22 32 12 17 1011.9 1011.8 0.0
27/07:30am 14.8 11.4 6.1 56 4.2 NNW 13 19 7 10 1011.9 1011.8 0.0
27/07:00am 14.8 11.1 6.1 56 4.2 NW 15 26 8 14 1011.7 1011.6 0.0
27/06:30am 14.8 10.7 6.1 56 4.2 NW 17 26 9 14 1012.0 1011.9 0.0
27/06:00am 14.7 11.3 6.0 56 4.2 NW 13 19 7 10 1012.2 1012.1 0.0
27/05:30am 14.8 10.6 5.9 55 4.3 NW 17 22 9 12 1011.8 1011.7 0.0
27/05:00am 15.0 10.3 6.0 55 4.3 NNW 20 30 11 16 1011.3 1011.2 0.0
27/04:30am 14.9 11.1 5.7 54 4.4 NNW 15 19 8 10 1011.2 1011.1 0.0
27/04:00am 15.0 11.2 5.8 54 4.4 WNW 15 20 8 11 1012.1 1012.0 0.0
27/03:30am 15.1 10.3 5.6 53 4.5 NW 20 35 11 19 1012.1 1012.0 0.0
27/03:00am 15.2 10.0 5.4 52 4.7 NW 22 35 12 19 1011.8 1011.7 0.0
27/02:30am 15.3 9.7 5.2 51 4.8 NW 24 37 13 20 1011.6 1011.5 0.0
27/02:00am 15.4 9.7 5.0 50 4.9 NW 24 41 13 22 1011.7 1011.6 0.0
27/01:30am 15.5 10.7 5.4 51 4.8 NW 20 28 11 15 1011.9 1011.8 0.0
27/01:00am 15.6 10.8 5.5 51 4.8 NW 20 30 11 16 1012.0 1011.9 0.0
27/12:30am 15.6 10.4 5.5 51 4.8 NW 22 32 12 17 1011.6 1011.5 0.0
27/12:00am 15.9 11.3 5.5 50 5.0 NW 19 30 10 16 1011.9 1011.8 0.0
 
Date/Time
EDT
Temp
°C
App
Temp
°C
Dew
Point
°C
Rel
Hum
%
Delta-T
°C
Wind Press
QNH
hPa
Press
MSL
hPa
Rain since
9am
mm
Dir  Spd
km/h
Gust
km/h
Spd
kts
Gust
kts
26/11:30pm 16.1 11.5 5.7 50 5.0 NNW 19 26 10 14 1012.3 1012.2 0.0
26/11:00pm 16.2 11.4 4.9 47 5.4 NW 19 26 10 14 1012.7 1012.6 0.0
26/10:30pm 16.2 12.3 5.2 48 5.2 NW 15 26 8 14 1012.9 1012.8 0.0
26/10:00pm 16.2 13.0 5.2 48 5.3 NW 11 15 6 8 1012.6 1012.5 0.0
26/09:30pm 16.4 11.4 4.8 46 5.5 NW 20 32 11 17 1012.3 1012.2 0.0
26/09:00pm 16.6 12.2 4.6 45 5.7 NW 17 32 9 17 1011.7 1011.6 0.0
26/08:30pm 17.0 12.5 4.3 43 6.0 NW 17 28 9 15 1011.1 1011.0 0.0
26/08:00pm 17.7 11.6 4.6 42 6.3 NW 26 35 14 19 1010.2 1010.2 0.0
26/07:30pm 18.3 11.5 5.2 42 6.3 NW 30 39 16 21 1009.7 1009.7 0.0
26/07:00pm 19.3 14.7 5.4 40 6.8 NW 19 28 10 15 1009.5 1009.5 0.0
26/06:30pm 20.2 15.4 5.4 38 7.3 WNW 20 35 11 19 1009.0 1009.0 0.0
26/06:19pm 20.1 15.2 5.0 37 7.4 WNW 20 39 11 21 1008.8 1008.8 0.0
26/06:00pm 19.9 15.7 5.9 40 7.0 NNW 17 33 9 18 1008.4 1008.4 0.0
26/05:30pm 20.8 16.1 6.0 38 7.4 NW 20 37 11 20 1008.2 1008.2 0.0
26/05:00pm 20.2 15.4 5.8 39 7.2 NW 20 33 11 18 1008.2 1008.2 0.0
26/04:30pm 20.0 15.1 6.7 42 6.7 WNW 22 35 12 19 1008.2 1008.2 0.0
26/04:00pm 20.5 14.4 6.8 41 7.0 NW 28 43 15 23 1008.0 1007.9 0.0
26/03:31pm 21.3 14.3 6.0 37 7.7 NNW 32 54 17 29 1007.5 1007.4 0.0
26/03:30pm 21.6 15.1 6.3 37 7.8 NNW 30 46 16 25 1007.4 1007.3 0.0
26/03:01pm 21.7 14.1 6.0 36 7.9 NNW 35 54 19 29 1007.2 1007.1 0.0
26/03:00pm 21.7 13.6 5.2 34 8.2 NNW 37 54 20 29 1007.2 1007.1 0.0
26/02:37pm 21.7 15.4 5.6 35 8.1 NW 28 61 15 33 1007.3 1007.2 0.0
26/02:30pm 23.0 18.1 6.7 35 8.4 WNW 22 39 12 21 1007.6 1007.5 0.0
26/02:16pm 22.0 15.9 8.2 41 7.3 WNW 30 50 16 27 1007.7 1007.6 0.0
26/02:00pm 22.2 17.8 7.6 39 7.6 W 20 39 11 21 1007.4 1007.3 0.0
26/01:30pm 22.8 16.0 7.0 36 8.2 NW 32 50 17 27 1006.9 1006.8 0.0
26/01:03pm 21.8 15.9 7.6 40 7.4 NW 28 46 15 25 1007.1 1007.0 0.0
26/01:00pm 22.4 15.9 8.1 40 7.5 NW 32 46 17 25 1007.0 1006.9 0.0
26/12:51pm 22.8 17.0 8.1 39 7.8 NW 28 46 15 25 1006.8 1006.7 0.0
26/12:30pm 22.6 17.9 9.4 43 7.1 WNW 24 35 13 19 1006.7 1006.6 0.0
26/12:00pm 22.1 18.2 9.6 45 6.8 WNW 20 35 11 19 1006.6 1006.5 0.0
26/11:30am 22.4 18.2 9.6 44 6.9 NW 22 41 12 22 1006.3 1006.2 0.0
26/11:21am 22.5 18.7 9.0 42 7.2 NNW 19 41 10 22 1006.2 1006.1 0.0
26/11:00am 20.8 19.0 12.0 57 4.9 E 13 20 7 11 1006.4 1006.3 0.0
26/10:30am 19.7 17.7 12.7 64 3.9 ESE 15 19 8 10 1006.6 1006.5 0.0
26/10:00am 20.1 18.5 12.8 63 4.1 SE 13 20 7 11 1006.7 1006.6 0.0
26/09:30am 21.1 18.1 10.6 51 5.7 N 17 24 9 13 1006.9 1006.8 0.0
26/09:00am 20.8 18.2 10.6 52 5.6 N 15 28 8 15 1006.6 1006.5 0.0
26/08:30am 19.3 16.0 11.6 61 4.2 NNW 20 28 11 15 1006.8 1006.7 0.0
26/08:00am 17.5 17.4 14.0 80 2.0 SE 7 11 4 6 1006.8 1006.7 0.0
26/07:30am 16.9 15.9 14.7 87 1.3 ESE 13 17 7 9 1006.5 1006.4 0.0
26/07:00am 16.7 15.8 13.8 83 1.6 ESE 11 17 6 9 1006.4 1006.3 0.0
26/06:30am 18.5 16.1 12.5 68 3.4 NW 17 24 9 13 1006.2 1006.1 0.0
26/06:00am 18.9 15.8 12.2 65 3.7 NW 20 37 11 20 1006.0 1005.9 0.0
26/05:30am 18.6 16.1 12.4 67 3.5 NW 17 28 9 15 1005.7 1005.6 0.0
26/05:00am 19.0 16.0 12.5 66 3.7 NW 20 30 11 16 1005.5 1005.4 0.0
26/04:30am 19.2 16.4 12.7 66 3.7 NW 19 32 10 17 1005.8 1005.7 0.0
26/04:00am 18.7 16.8 13.1 70 3.2 NW 15 22 8 12 1005.9 1005.8 0.0
26/03:30am 18.1 17.5 13.4 74 2.7 WNW 9 13 5 7 1005.8 1005.7 0.0
26/03:00am 17.7 17.6 14.0 79 2.1 SSW 7 9 4 5 1006.0 1005.9 0.0
26/02:30am 17.8 17.9 13.9 78 2.2 SE 6 7 3 4 1006.2 1006.1 0.0
26/02:00am 17.8 18.7 14.1 79 2.1 SSW 2 7 1 4 1006.6 1006.5 0.0
26/01:30am 17.3 17.4 14.4 83 1.7 SSE 7 9 4 5 1006.9 1006.8 0.0
26/01:00am 16.8 17.0 14.3 85 1.4 SE 6 7 3 4 1007.1 1007.0 0.0
26/12:30am 17.5 17.5 14.2 81 1.9 NW 7 9 4 5 1007.4 1007.3 0.0
26/12:00am 17.0 17.0 14.1 83 1.7 SW 7 11 4 6 1007.5 1007.4 0.0
 
Date/Time
EDT
Temp
°C
App
Temp
°C
Dew
Point
°C
Rel
Hum
%
Delta-T
°C
Wind Press
QNH
hPa
Press
MSL
hPa
Rain since
9am
mm
Dir  Spd
km/h
Gust
km/h
Spd
kts
Gust
kts
25/11:30pm 17.0 17.2 14.1 83 1.7 NE 6 9 3 5 1007.7 1007.6 0.0
25/11:00pm 17.7 18.2 14.0 79 2.1 E 4 7 2 4 1008.1 1008.1 0.0
25/10:30pm 17.3 16.5 14.0 81 1.9 E 11 15 6 8 1008.5 1008.5 0.0
25/10:00pm 19.0 18.4 13.4 70 3.2 E 9 13 5 7 1008.2 1008.2 0.0
25/09:30pm 21.4 19.7 12.5 57 5.0 NW 13 19 7 10 1007.9 1007.8 0.0
25/09:00pm 21.6 18.6 12.5 56 5.2 WNW 20 32 11 17 1007.5 1007.4 0.0
25/08:30pm 21.9 19.4 12.2 54 5.5 NW 17 24 9 13 1007.3 1007.2 0.0
25/08:00pm 22.2 19.3 12.2 53 5.7 WNW 19 32 10 17 1007.1 1007.0 0.0
25/07:30pm 22.7 19.6 11.7 49 6.2 WNW 19 32 10 17 1007.0 1006.9 0.0
25/07:00pm 23.0 19.4 11.7 49 6.4 WNW 22 30 12 16 1006.7 1006.6 0.0
25/06:30pm 23.5 20.3 11.9 48 6.6 NW 20 30 11 16 1006.7 1006.6 0.0
25/06:00pm 23.5 20.9 11.9 48 6.6 NW 17 24 9 13 1007.0 1006.9 0.0
25/05:30pm 23.9 20.2 11.6 46 6.9 NW 22 35 12 19 1007.0 1006.9 0.0
25/05:00pm 24.8 22.1 11.7 44 7.5 NW 17 26 9 14 1007.2 1007.1 0.0
25/04:30pm 24.3 20.7 11.9 45 7.1 NW 22 33 12 18 1007.3 1007.2 0.0
25/04:00pm 23.5 19.3 11.2 46 6.9 NW 24 41 13 22 1007.4 1007.3 0.0
25/03:30pm 23.3 18.3 11.0 46 6.9 NNW 28 37 15 20 1007.5 1007.4 0.0
25/03:00pm 23.5 18.1 10.9 45 7.0 NNW 30 41 16 22 1007.5 1007.4 0.0
25/02:30pm 23.9 18.4 10.6 43 7.4 NW 30 52 16 28 1007.6 1007.5 0.0
25/02:08pm 23.9 18.7 10.2 42 7.6 NW 28 46 15 25 1007.5 1007.4 0.0
25/02:00pm 23.8 19.1 10.5 43 7.4 NW 26 46 14 25 1007.6 1007.5 0.0
25/01:30pm 23.2 17.1 10.3 44 7.1 NW 33 52 18 28 1007.6 1007.5 0.0
25/01:07pm 22.9 17.6 10.0 44 7.0 NW 28 46 15 25 1007.7 1007.6 0.0
25/01:00pm 22.8 18.6 9.9 44 7.0 NW 22 41 12 22 1007.7 1007.6 0.0
25/12:30pm 22.6 16.9 9.7 44 7.0 NNW 30 48 16 26 1007.8 1007.7 0.0
25/12:18pm 22.1 16.1 8.6 42 7.2 NNW 30 52 16 28 1007.9 1007.8 0.0
25/12:00pm 23.2 16.8 8.5 39 7.8 NNW 32 44 17 24 1008.0 1007.9 0.0
25/11:40am 22.9 17.4 9.0 41 7.5 NW 28 48 15 26 1008.3 1008.3 0.0
25/11:30am 22.6 17.1 9.0 42 7.3 NW 28 41 15 22 1008.3 1008.3 0.0
25/11:00am 21.5 16.2 8.4 43 6.9 NW 26 41 14 22 1008.3 1008.3 0.0
25/10:30am 19.7 13.3 7.1 44 6.4 NW 30 44 16 24 1008.2 1008.2 0.0
25/10:00am 18.4 11.1 7.2 48 5.7 NNW 35 48 19 26 1008.3 1008.3 0.0
25/09:53am 18.6 12.3 7.4 48 5.7 NW 30 48 16 26 1008.3 1008.3 0.0
25/09:30am 18.0 12.1 7.4 50 5.4 NNW 28 43 15 23 1008.5 1008.5 0.0
25/09:00am 17.5 13.1 7.3 51 5.1 NW 20 32 11 17 1008.6 1008.6 0.0
25/08:30am 17.0 11.8 7.4 53 4.8 NW 24 33 13 18 1008.5 1008.5 0.0
25/08:00am 16.7 12.2 7.1 53 4.8 NNW 20 32 11 17 1008.1 1008.1 0.0
25/07:30am 16.4 11.5 7.1 54 4.6 NW 22 33 12 18 1007.9 1007.8 0.0
25/07:00am 16.0 11.5 7.0 55 4.5 NNW 20 30 11 16 1007.4 1007.3 0.0
25/06:30am 15.9 12.0 6.9 55 4.4 NW 17 32 9 17 1007.2 1007.1 0.0
25/06:00am 15.8 12.2 6.8 55 4.4 WNW 15 20 8 11 1006.8 1006.7 0.0
25/05:30am 15.6 11.2 7.4 58 4.1 NW 20 28 11 15 1006.6 1006.5 0.0
25/05:00am 15.6 11.4 7.4 58 4.1 NW 19 28 10 15 1006.6 1006.5 0.0
25/04:30am 15.4 11.9 7.4 59 4.0 NW 15 20 8 11 1006.6 1006.5 0.0
25/04:00am 15.3 12.6 7.3 59 4.0 WNW 11 20 6 11 1006.6 1006.5 0.0
25/03:30am 15.9 12.1 7.4 57 4.2 NW 17 24 9 13 1006.6 1006.5 0.0
25/03:00am 15.9 12.8 7.4 57 4.2 NW 13 30 7 16 1006.6 1006.5 0.0
25/02:30am 15.9 13.3 7.7 58 4.1 NNW 11 17 6 9 1006.5 1006.4 0.0
25/02:00am 15.9 13.3 7.7 58 4.1 NW 11 17 6 9 1006.5 1006.4 0.0
25/01:30am 16.5 13.5 7.7 56 4.4 NW 13 20 7 11 1006.4 1006.3 0.0
25/01:00am 16.9 14.0 8.1 56 4.5 NNW 13 20 7 11 1006.3 1006.2 0.0
25/12:30am 17.3 14.3 7.6 53 4.9 NNW 13 26 7 14 1006.4 1006.3 0.0
25/12:00am 17.5 13.2 7.8 53 4.9 WNW 20 28 11 15 1006.4 1006.3 0.0
 
Date/Time
EDT
Temp
°C
App
Temp
°C
Dew
Point
°C
Rel
Hum
%
Delta-T
°C
Wind Press
QNH
hPa
Press
MSL
hPa
Rain since
9am
mm
Dir  Spd
km/h
Gust
km/h
Spd
kts
Gust
kts
24/11:30pm 17.5 14.8 8.9 57 4.5 NW 13 22 7 12 1006.2 1006.1 0.0
24/11:00pm 18.0 15.4 9.4 57 4.5 NNW 13 17 7 9 1006.1 1006.0 0.0
24/10:30pm 18.2 14.5 9.3 56 4.7 NW 19 30 10 16 1006.0 1005.9 0.0
24/10:00pm 18.2 15.5 9.0 55 4.8 WNW 13 19 7 10 1006.0 1005.9 0.0
24/09:30pm 18.6 15.8 8.6 52 5.2 NW 13 24 7 13 1005.6 1005.5 0.0
24/09:00pm 18.9 15.7 8.3 50 5.5 NW 15 24 8 13 1005.0 1004.9 0.0
24/08:30pm 19.2 14.6 8.2 49 5.7 NW 22 35 12 19 1004.9 1004.8 0.0
24/08:00pm 19.6 16.2 7.7 46 6.1 NW 15 24 8 13 1004.5 1004.4 0.0

Latest Capital City Observations: Canberra | Sydney | Melbourne | Brisbane | Adelaide | Perth | Hobart | Darwin

Other formats

Comma delimited format used in spreadsheet applications
http://www.bom.gov.au/fwo/IDT60901/IDT60901.94970.axf

JavaScript Object Notation format (JSON) in row-major order
http://www.bom.gov.au/fwo/IDT60901/IDT60901.94970.json

Data quality

Most of these data are generated automatically and are frequently updated. Quality checks on data are not normally performed. It is possible for incorrect values to appear. Refer to information at About Latest Weather Observations and please check the disclaimer before using these data.